Time;durP1;ratioP1;P1;durP2;ratioP2;P2;SDS_P1;SDS_P2;PMS_P1;PMS_P2;Temp;Humidity;BMP_temperature;BMP_pressure;BME280_temperature;BME280_humidity;BME280_pressure;Samples;Min_cycle;Max_cycle;Signal;HPM_P1;HPM_P2
2022/07/21 00:01:16;;;;;;;1.47;0.90;;;22.10;98.20;;;;;;6060579;23;20446;-78
2022/07/21 00:03:45;;;;;;;1.50;1.00;;;22.10;98.20;;;;;;6082743;23;20721;-78
2022/07/21 00:06:12;;;;;;;1.50;0.90;;;22.10;98.20;;;;;;6055977;23;20454;-78
2022/07/21 00:08:38;;;;;;;1.50;1.00;;;22.10;98.20;;;;;;6083262;23;20598;-77
2022/07/21 00:11:06;;;;;;;1.50;0.90;;;22.10;98.20;;;;;;6066001;23;20459;-77
2022/07/21 00:13:33;;;;;;;1.50;0.90;;;22.10;98.20;;;;;;6065807;23;20796;-78
2022/07/21 00:16:00;;;;;;;1.47;0.90;;;22.10;98.20;;;;;;6053373;23;20498;-77
2022/07/21 00:18:29;;;;;;;1.43;0.90;;;22.00;98.20;;;;;;6084157;23;20927;-78
2022/07/21 00:20:57;;;;;;;1.47;0.90;;;22.00;98.20;;;;;;6057943;23;20486;-79
2022/07/21 00:23:25;;;;;;;1.50;0.90;;;22.00;98.20;;;;;;6090597;23;20420;-77
2022/07/21 00:25:52;;;;;;;1.43;0.90;;;22.00;98.20;;;;;;6055340;23;20451;-78
2022/07/21 00:28:19;;;;;;;1.50;0.90;;;22.00;98.20;;;;;;6088065;23;20496;-77
2022/07/21 00:30:47;;;;;;;1.50;0.90;;;22.00;98.20;;;;;;6053590;23;20424;-76
2022/07/21 00:33:14;;;;;;;1.47;0.90;;;22.00;98.20;;;;;;6086557;23;20814;-76
2022/07/21 00:35:41;;;;;;;1.47;0.90;;;22.00;98.20;;;;;;6063244;23;20482;-75
2022/07/21 00:38:09;;;;;;;1.47;0.90;;;22.00;98.20;;;;;;6072131;23;20462;-76
2022/07/21 00:40:36;;;;;;;1.50;0.90;;;22.00;98.20;;;;;;6073786;23;20518;-76
2022/07/21 00:43:03;;;;;;;1.47;0.90;;;22.00;98.20;;;;;;6072098;23;20537;-75
2022/07/21 00:45:30;;;;;;;1.43;0.90;;;22.00;98.20;;;;;;6064355;23;20574;-76
2022/07/21 00:47:58;;;;;;;1.43;0.90;;;21.90;98.20;;;;;;6072473;23;20529;-75
2022/07/21 00:50:25;;;;;;;1.40;0.90;;;21.90;98.20;;;;;;6063665;23;20442;-75
2022/07/21 00:52:52;;;;;;;1.47;0.90;;;21.90;98.20;;;;;;6072003;23;20852;-76
2022/07/21 00:55:24;;;;;;;1.50;0.90;;;21.90;98.20;;;;;;6062627;23;20434;-76
2022/07/21 00:57:53;;;;;;;1.47;0.90;;;21.80;98.20;;;;;;6063434;23;20444;-75
2022/07/21 01:00:25;;;;;;;1.47;0.90;;;21.80;98.20;;;;;;6064242;23;20423;-76
2022/07/21 01:02:53;;;;;;;1.47;0.90;;;21.80;98.20;;;;;;6071906;23;20858;-77
2022/07/21 01:05:21;;;;;;;1.50;0.90;;;21.70;98.20;;;;;;6063723;23;20427;-75
2022/07/21 01:07:50;;;;;;;1.40;0.90;;;21.70;98.20;;;;;;6070968;23;20518;-77
2022/07/21 01:10:20;;;;;;;1.47;0.90;;;21.70;98.20;;;;;;6063902;23;20734;-76
2022/07/21 01:12:47;;;;;;;1.47;0.90;;;21.60;98.20;;;;;;6072715;23;20511;-77
2022/07/21 01:15:17;;;;;;;1.50;0.90;;;21.40;98.20;;;;;;6063330;23;20974;-76
2022/07/21 01:17:44;;;;;;;1.47;0.90;;;21.30;98.20;;;;;;6072389;23;20657;-77
2022/07/21 01:20:14;;;;;;;1.47;0.87;;;21.30;98.20;;;;;;6064840;23;20479;-77
2022/07/21 01:22:45;;;;;;;1.50;0.90;;;21.20;98.20;;;;;;6072643;23;20478;-76
2022/07/21 01:25:14;;;;;;;1.47;0.90;;;21.20;98.20;;;;;;6065073;23;20408;-76
2022/07/21 01:27:41;;;;;;;1.43;0.90;;;21.20;98.20;;;;;;6070477;23;20458;-76
2022/07/21 01:30:10;;;;;;;1.50;0.90;;;21.20;98.20;;;;;;6065123;23;20504;-76
2022/07/21 01:32:39;;;;;;;1.50;0.90;;;21.20;98.20;;;;;;6064170;23;20446;-76
2022/07/21 01:35:09;;;;;;;1.77;1.67;;;21.20;98.20;;;;;;6062605;23;20427;-75
2022/07/21 01:37:39;;;;;;;1.47;0.90;;;21.20;98.20;;;;;;6074064;23;20458;-75
2022/07/21 01:43:35;;;;;;;1.43;0.90;;;21.10;98.20;;;;;;5956301;23;20462;-76
2022/07/21 01:46:02;;;;;;;1.50;0.90;;;21.10;98.20;;;;;;6053980;23;20439;-76
2022/07/21 01:48:29;;;;;;;1.50;0.90;;;21.00;98.20;;;;;;6094537;23;20423;-76
2022/07/21 01:50:57;;;;;;;1.50;0.90;;;21.10;98.20;;;;;;6065709;23;20455;-77
2022/07/21 01:53:25;;;;;;;1.43;0.90;;;21.10;98.20;;;;;;6076086;23;20447;-76
2022/07/21 01:55:53;;;;;;;1.50;0.90;;;21.10;98.20;;;;;;6050408;23;20510;-77
2022/07/21 01:58:20;;;;;;;1.47;0.90;;;21.20;98.20;;;;;;6083779;23;20431;-76
2022/07/21 02:00:47;;;;;;;1.47;0.90;;;21.20;98.20;;;;;;6062579;23;20419;-75
2022/07/21 02:03:14;;;;;;;1.47;0.90;;;21.20;98.20;;;;;;6064326;23;21042;-76
2022/07/21 02:05:41;;;;;;;1.47;0.90;;;21.20;98.20;;;;;;6063783;23;20887;-76
2022/07/21 02:08:08;;;;;;;1.43;0.87;;;21.20;98.20;;;;;;6071824;23;20451;-77
2022/07/21 02:10:36;;;;;;;1.43;0.90;;;21.00;98.20;;;;;;6064666;23;20499;-76
2022/07/21 02:13:04;;;;;;;1.47;0.90;;;21.00;98.20;;;;;;6071146;23;20446;-77
2022/07/21 02:15:32;;;;;;;1.47;0.90;;;20.90;98.20;;;;;;6063340;23;20423;-76
2022/07/21 02:17:59;;;;;;;1.43;0.90;;;20.80;98.20;;;;;;6070927;23;20530;-77
2022/07/21 02:20:27;;;;;;;1.50;0.90;;;20.80;98.20;;;;;;6064677;23;20431;-77
2022/07/21 02:22:54;;;;;;;1.50;0.90;;;20.70;98.20;;;;;;6064384;23;20423;-76
2022/07/21 02:25:21;;;;;;;1.50;0.90;;;20.60;98.20;;;;;;6063758;23;20498;-76
2022/07/21 02:27:48;;;;;;;1.40;0.90;;;20.60;98.20;;;;;;6074947;23;20450;-75
2022/07/21 02:30:18;;;;;;;1.50;0.90;;;20.60;98.20;;;;;;6064907;23;20811;-75
2022/07/21 02:32:45;;;;;;;1.50;1.10;;;20.70;98.20;;;;;;6070804;23;20861;-76
2022/07/21 02:35:13;;;;;;;1.47;0.90;;;20.70;98.20;;;;;;6063189;23;20423;-76
2022/07/21 02:37:40;;;;;;;1.50;0.90;;;20.80;98.20;;;;;;6070015;23;20915;-76
2022/07/21 02:40:08;;;;;;;1.47;0.90;;;20.70;98.20;;;;;;6065025;23;20458;-77
2022/07/21 02:42:37;;;;;;;1.43;0.90;;;20.70;98.20;;;;;;6069428;23;20459;-77
2022/07/21 02:45:05;;;;;;;1.43;0.90;;;20.60;98.20;;;;;;6065744;23;20432;-76
2022/07/21 02:47:48;;;;;;;1.47;0.90;;;20.50;98.20;;;;;;6069071;23;20458;-75
2022/07/21 02:50:17;;;;;;;1.50;0.90;;;20.50;98.20;;;;;;6062032;23;20427;-76
2022/07/21 02:52:44;;;;;;;1.50;0.90;;;20.50;98.20;;;;;;6072051;23;20675;-76
2022/07/21 02:55:11;;;;;;;1.43;0.90;;;20.60;98.20;;;;;;6063741;23;20863;-76
2022/07/21 02:57:39;;;;;;;1.50;0.90;;;20.60;98.20;;;;;;6070642;23;20455;-76
2022/07/21 03:00:09;;;;;;;3.43;1.93;;;20.70;98.20;;;;;;6065103;23;20427;-77
2022/07/21 03:02:41;;;;;;;1.63;1.00;;;20.70;98.20;;;;;;6071243;23;20501;-76
2022/07/21 03:05:09;;;;;;;1.43;0.90;;;20.60;98.20;;;;;;6075213;23;20424;-76
2022/07/21 03:07:36;;;;;;;1.50;1.00;;;20.60;98.20;;;;;;6067548;23;20541;-76
2022/07/21 03:10:04;;;;;;;1.47;0.80;;;20.70;98.20;;;;;;6075422;23;20431;-77
2022/07/21 03:12:40;;;;;;;1.50;0.90;;;20.70;98.20;;;;;;6062592;23;20625;-77
2022/07/21 03:15:09;;;;;;;1.43;0.90;;;20.70;98.20;;;;;;6063808;23;20503;-76
2022/07/21 03:17:36;;;;;;;1.60;1.20;;;20.70;98.20;;;;;;6069291;23;20541;-76
2022/07/21 03:20:05;;;;;;;1.50;0.90;;;20.70;98.20;;;;;;6065923;23;20423;-75
2022/07/21 03:22:32;;;;;;;1.50;0.90;;;20.80;98.20;;;;;;6069784;23;20455;-75
2022/07/21 03:25:01;;;;;;;1.50;0.90;;;20.80;98.20;;;;;;6066260;23;20451;-76
2022/07/21 03:27:29;;;;;;;1.47;0.90;;;20.90;98.20;;;;;;6073469;23;20454;-74
2022/07/21 03:29:56;;;;;;;1.47;0.90;;;20.80;98.20;;;;;;6069023;23;20427;-76
2022/07/21 03:32:23;;;;;;;1.60;1.20;;;20.80;98.20;;;;;;6071389;23;20506;-76
2022/07/21 03:34:50;;;;;;;1.47;0.90;;;20.80;98.20;;;;;;6067862;23;20841;-76
2022/07/21 03:37:19;;;;;;;1.43;0.90;;;20.80;98.20;;;;;;6063373;23;20443;-76
2022/07/21 03:39:46;;;;;;;1.50;0.90;;;20.80;98.20;;;;;;6062763;23;20502;-75
2022/07/21 03:42:13;;;;;;;1.43;0.90;;;20.80;98.20;;;;;;6065935;23;20485;-76
2022/07/21 03:44:40;;;;;;;1.50;0.90;;;20.80;98.20;;;;;;6070736;23;20854;-74
2022/07/21 03:47:07;;;;;;;1.50;0.90;;;20.70;98.20;;;;;;6064176;23;20493;-75
2022/07/21 03:49:34;;;;;;;1.40;0.90;;;20.60;98.20;;;;;;6071512;23;20422;-75
2022/07/21 03:52:02;;;;;;;1.47;0.90;;;20.50;98.20;;;;;;6063684;23;21080;-75
2022/07/21 03:54:30;;;;;;;1.43;0.90;;;20.50;98.20;;;;;;6065179;23;20494;-75
2022/07/21 03:56:57;;;;;;;1.50;0.90;;;20.50;98.20;;;;;;6065345;23;20683;-75
2022/07/21 03:59:25;;;;;;;1.50;0.90;;;20.50;98.20;;;;;;6074097;23;20429;-74
2022/07/21 04:01:53;;;;;;;1.50;1.20;;;20.50;98.20;;;;;;6063543;23;20477;-76
2022/07/21 04:04:20;;;;;;;1.50;0.90;;;20.50;98.20;;;;;;6085489;23;20519;-76
2022/07/21 04:06:49;;;;;;;1.50;0.90;;;20.60;98.20;;;;;;6063028;23;20595;-76
2022/07/21 04:09:17;;;;;;;1.47;0.90;;;20.60;98.20;;;;;;6065632;23;20428;-76
2022/07/21 04:11:46;;;;;;;1.50;1.00;;;20.60;98.20;;;;;;6062133;23;20451;-75
2022/07/21 04:14:13;;;;;;;1.60;1.20;;;20.60;98.20;;;;;;6080465;23;20455;-75
2022/07/21 04:16:40;;;;;;;3.10;2.90;;;20.60;98.20;;;;;;6062760;23;20532;-75
2022/07/21 04:19:07;;;;;;;1.47;0.90;;;20.60;98.20;;;;;;6078817;23;20478;-75
2022/07/21 04:21:35;;;;;;;1.50;0.90;;;20.60;98.20;;;;;;6061148;23;20509;-74
2022/07/21 04:24:02;;;;;;;1.47;0.90;;;20.60;98.20;;;;;;6080380;23;20448;-75
2022/07/21 04:26:31;;;;;;;1.40;0.90;;;20.70;98.20;;;;;;6068711;23;20462;-77
2022/07/21 04:28:59;;;;;;;1.50;0.90;;;20.70;98.20;;;;;;6084378;23;20447;-76
2022/07/21 04:31:27;;;;;;;1.50;0.90;;;20.60;98.20;;;;;;6062693;23;20469;-76
2022/07/21 04:33:54;;;;;;;1.50;0.90;;;20.60;98.20;;;;;;6082840;23;20454;-76
2022/07/21 04:36:21;;;;;;;1.47;0.90;;;20.60;98.20;;;;;;6059026;23;20467;-76
2022/07/21 04:38:49;;;;;;;1.47;0.90;;;20.70;98.20;;;;;;6084857;23;20776;-77
2022/07/21 04:41:16;;;;;;;1.43;0.90;;;20.70;98.20;;;;;;6060322;23;20656;-77
2022/07/21 04:43:43;;;;;;;1.70;1.43;;;20.80;98.20;;;;;;6087143;23;20419;-76
2022/07/21 04:46:12;;;;;;;1.43;0.90;;;20.80;98.20;;;;;;6059156;23;21139;-77
2022/07/21 04:48:40;;;;;;;1.47;0.90;;;20.90;98.20;;;;;;6093878;23;20423;-75
2022/07/21 04:51:07;;;;;;;1.50;0.90;;;21.00;98.20;;;;;;6065419;23;20427;-74
2022/07/21 04:53:34;;;;;;;1.50;0.90;;;21.00;98.20;;;;;;6066073;23;20454;-75
2022/07/21 04:56:04;;;;;;;1.47;0.90;;;21.00;98.20;;;;;;6065847;23;20463;-77
2022/07/21 04:58:34;;;;;;;1.50;0.90;;;21.10;98.20;;;;;;6065604;23;20424;-76
2022/07/21 05:01:01;;;;;;;1.50;0.90;;;21.10;98.20;;;;;;6056433;23;21178;-76
2022/07/21 05:03:30;;;;;;;1.47;0.90;;;21.10;98.20;;;;;;6086472;23;20429;-76
2022/07/21 05:06:00;;;;;;;1.43;0.90;;;21.20;98.20;;;;;;6054246;23;20443;-76
2022/07/21 05:08:28;;;;;;;1.47;0.90;;;21.20;98.20;;;;;;6086607;23;20418;-75
2022/07/21 05:10:55;;;;;;;1.50;1.00;;;21.30;98.20;;;;;;6053324;23;20459;-75
2022/07/21 05:13:22;;;;;;;1.50;0.90;;;21.30;98.20;;;;;;6085628;23;20424;-76
2022/07/21 05:15:50;;;;;;;1.43;0.90;;;21.50;98.20;;;;;;6052224;23;20439;-76
2022/07/21 05:18:17;;;;;;;2.73;1.53;;;21.50;98.20;;;;;;6086720;23;20439;-75
2022/07/21 05:20:46;;;;;;;1.50;0.90;;;21.60;98.20;;;;;;6065192;23;20424;-75
2022/07/21 05:23:16;;;;;;;1.47;0.90;;;21.60;98.20;;;;;;6068621;23;20505;-77
2022/07/21 05:25:43;;;;;;;1.47;0.90;;;21.60;98.20;;;;;;6073432;23;20915;-76
2022/07/21 05:28:10;;;;;;;1.47;0.90;;;21.60;98.20;;;;;;6062486;23;20424;-77
2022/07/21 05:30:38;;;;;;;1.50;0.90;;;21.60;98.20;;;;;;6063341;23;20483;-75
2022/07/21 05:33:05;;;;;;;1.47;0.90;;;21.60;98.20;;;;;;6064745;23;20431;-76
2022/07/21 05:35:33;;;;;;;1.50;0.90;;;21.60;98.20;;;;;;6065019;23;21018;-76
2022/07/21 05:38:02;;;;;;;1.50;0.90;;;21.60;98.20;;;;;;6071004;23;20978;-76
2022/07/21 05:40:29;;;;;;;1.50;0.90;;;21.50;98.20;;;;;;6062270;23;20412;-76
2022/07/21 05:42:56;;;;;;;1.50;0.90;;;21.50;98.20;;;;;;6061295;23;20428;-78
2022/07/21 05:45:24;;;;;;;1.50;0.90;;;21.40;98.20;;;;;;6062268;23;20499;-76
2022/07/21 05:47:51;;;;;;;1.50;0.90;;;21.40;98.20;;;;;;6071654;23;20460;-77
2022/07/21 05:50:18;;;;;;;1.50;0.90;;;21.40;98.20;;;;;;6064577;23;20428;-76
2022/07/21 05:52:48;;;;;;;1.50;0.90;;;21.40;98.20;;;;;;6064535;23;20427;-75
2022/07/21 05:55:16;;;;;;;1.50;1.00;;;21.40;98.20;;;;;;6065295;23;20458;-76
2022/07/21 05:57:44;;;;;;;1.47;0.90;;;21.40;98.20;;;;;;6068407;23;20454;-77
2022/07/21 06:00:12;;;;;;;1.47;0.90;;;21.50;98.20;;;;;;6062195;23;20419;-74
2022/07/21 06:02:39;;;;;;;1.47;0.90;;;21.50;98.20;;;;;;6060371;23;20438;-76
2022/07/21 06:05:08;;;;;;;1.50;0.90;;;21.50;98.20;;;;;;6059922;23;20427;-76
2022/07/21 06:07:35;;;;;;;1.43;0.83;;;21.50;98.20;;;;;;6067882;23;20532;-77
2022/07/21 06:10:02;;;;;;;1.47;0.90;;;21.50;98.20;;;;;;6063156;23;20455;-76
2022/07/21 06:12:31;;;;;;;1.50;0.90;;;21.50;98.20;;;;;;6065550;23;20470;-77
2022/07/21 06:14:58;;;;;;;1.50;0.87;;;21.50;98.20;;;;;;6064007;23;20802;-75
2022/07/21 06:17:26;;;;;;;1.47;0.90;;;21.40;98.20;;;;;;6065569;23;20455;-76
2022/07/21 06:19:53;;;;;;;1.47;0.90;;;21.40;98.20;;;;;;6064952;23;20427;-76
2022/07/21 06:22:20;;;;;;;1.47;0.90;;;21.40;98.20;;;;;;6066649;23;20472;-75
2022/07/21 06:24:47;;;;;;;1.50;0.90;;;21.40;98.20;;;;;;6066528;23;20986;-75
2022/07/21 06:27:15;;;;;;;1.47;0.90;;;21.40;98.20;;;;;;6063211;23;20458;-75
2022/07/21 06:29:44;;;;;;;1.50;0.90;;;21.30;98.20;;;;;;6066679;23;20434;-76
2022/07/21 06:32:11;;;;;;;1.43;0.90;;;21.30;98.20;;;;;;6059872;23;20427;-76
2022/07/21 06:34:38;;;;;;;1.43;0.90;;;21.50;98.20;;;;;;6061063;23;21044;-75
2022/07/21 06:37:05;;;;;;;1.70;1.23;;;21.90;98.20;;;;;;6061362;23;20448;-76
2022/07/21 06:39:33;;;;;;;1.50;0.90;;;22.30;98.20;;;;;;6061284;23;20439;-75
2022/07/21 06:42:00;;;;;;;1.50;0.90;;;22.60;98.20;;;;;;6059919;23;20465;-76
2022/07/21 06:44:27;;;;;;;1.50;0.90;;;22.90;98.20;;;;;;6068319;23;20430;-76
2022/07/21 06:46:56;;;;;;;1.47;0.90;;;23.20;98.20;;;;;;6062997;23;20561;-74
2022/07/21 06:49:24;;;;;;;1.50;0.90;;;23.30;98.20;;;;;;6069858;23;20978;-74
2022/07/21 06:51:51;;;;;;;1.47;0.90;;;23.40;98.20;;;;;;6063208;23;20454;-76
2022/07/21 06:54:18;;;;;;;1.50;0.90;;;23.40;98.20;;;;;;6071980;23;20452;-74
2022/07/21 06:56:45;;;;;;;1.47;0.90;;;23.30;98.20;;;;;;6063500;23;20560;-75
2022/07/21 06:59:12;;;;;;;2.33;2.13;;;23.20;98.20;;;;;;6072767;23;20423;-76
2022/07/21 07:01:40;;;;;;;1.50;0.80;;;23.10;98.20;;;;;;6061976;23;20499;-75
2022/07/21 07:04:08;;;;;;;1.50;0.90;;;23.00;98.20;;;;;;6062864;23;20438;-75
2022/07/21 07:06:35;;;;;;;1.50;0.90;;;22.90;98.20;;;;;;6056463;23;20542;-76
2022/07/21 07:09:03;;;;;;;1.50;0.90;;;22.90;98.20;;;;;;6073890;23;20926;-76
2022/07/21 07:11:30;;;;;;;1.50;0.90;;;23.20;98.20;;;;;;6061480;23;20431;-76
2022/07/21 07:13:57;;;;;;;1.50;0.90;;;23.40;98.20;;;;;;6071248;23;20447;-76
2022/07/21 07:16:24;;;;;;;1.47;0.90;;;23.70;98.20;;;;;;6062190;23;20447;-74
2022/07/21 07:18:52;;;;;;;1.50;0.90;;;24.00;98.20;;;;;;6061871;23;20985;-76
2022/07/21 07:21:20;;;;;;;1.50;0.90;;;24.20;98.20;;;;;;6061214;23;20648;-74
2022/07/21 07:23:47;;;;;;;1.47;0.90;;;24.50;98.20;;;;;;6064021;23;20851;-76
2022/07/21 07:26:14;;;;;;;1.40;0.90;;;24.80;97.80;;;;;;6061300;23;20450;-76
2022/07/21 07:28:41;;;;;;;1.50;0.93;;;25.00;95.90;;;;;;6078812;23;20457;-74
2022/07/21 07:31:08;;;;;;;1.47;0.80;;;25.00;95.60;;;;;;6051826;23;20454;-76
2022/07/21 07:33:36;;;;;;;1.47;0.90;;;25.00;95.10;;;;;;6080144;23;20427;-75
2022/07/21 07:36:03;;;;;;;1.50;0.90;;;25.00;95.20;;;;;;6050961;23;20462;-76
2022/07/21 07:38:32;;;;;;;1.50;1.00;;;25.10;94.90;;;;;;6081637;23;20844;-75
2022/07/21 07:41:00;;;;;;;1.57;1.13;;;25.30;94.30;;;;;;6062169;23;20545;-76
2022/07/21 07:43:27;;;;;;;1.50;0.87;;;25.40;93.40;;;;;;6074157;23;20441;-76
2022/07/21 07:45:54;;;;;;;1.47;0.90;;;25.30;92.80;;;;;;6073510;23;20444;-77
2022/07/21 07:48:24;;;;;;;1.50;0.87;;;25.30;92.80;;;;;;6072588;23;20434;-75
2022/07/21 07:50:51;;;;;;;1.50;0.87;;;25.60;93.60;;;;;;6055187;23;20431;-76
2022/07/21 07:53:22;;;;;;;1.43;0.80;;;25.90;91.70;;;;;;6093129;23;20465;-75
2022/07/21 07:55:50;;;;;;;1.50;0.90;;;26.10;89.60;;;;;;6048405;23;20573;-75
2022/07/21 07:58:18;;;;;;;1.90;1.53;;;26.30;88.40;;;;;;6083614;23;21120;-74
2022/07/21 08:00:45;;;;;;;1.50;0.80;;;26.30;88.10;;;;;;6062848;23;20776;-75
2022/07/21 08:03:12;;;;;;;1.50;0.83;;;26.40;89.20;;;;;;6046342;23;20458;-74
2022/07/21 08:05:40;;;;;;;1.50;1.10;;;26.50;86.80;;;;;;6062900;23;20728;-75
2022/07/21 08:08:10;;;;;;;1.50;0.80;;;26.50;86.90;;;;;;6073554;23;20471;-76
2022/07/21 08:10:37;;;;;;;1.50;0.80;;;26.50;87.10;;;;;;6062739;23;20452;-75
2022/07/21 08:13:08;;;;;;;1.43;0.80;;;26.40;86.60;;;;;;6070529;23;20802;-77
2022/07/21 08:15:35;;;;;;;1.50;0.90;;;26.30;86.90;;;;;;6061752;23;20454;-77
2022/07/21 08:18:03;;;;;;;1.50;0.80;;;26.30;87.50;;;;;;6070864;23;20613;-76
2022/07/21 08:20:30;;;;;;;1.50;0.90;;;26.30;87.90;;;;;;6061823;23;20945;-75
2022/07/21 08:22:58;;;;;;;1.47;0.80;;;26.30;87.90;;;;;;6062090;23;20466;-76
2022/07/21 08:25:25;;;;;;;1.47;0.80;;;26.40;87.60;;;;;;6061431;23;20423;-76
2022/07/21 08:27:52;;;;;;;1.47;0.80;;;26.40;88.20;;;;;;6069013;23;20703;-74
2022/07/21 08:30:21;;;;;;;1.47;0.87;;;26.20;88.50;;;;;;6061910;23;20459;-76
2022/07/21 08:32:48;;;;;;;1.50;0.80;;;26.30;88.80;;;;;;6061260;23;20518;-74
2022/07/21 08:35:15;;;;;;;1.47;0.90;;;26.30;88.50;;;;;;6061685;23;20447;-75
2022/07/21 08:37:43;;;;;;;1.50;0.80;;;26.30;88.50;;;;;;6069364;23;20461;-75
2022/07/21 08:40:11;;;;;;;1.50;0.80;;;26.40;87.90;;;;;;6072923;23;20466;-74
2022/07/21 08:42:39;;;;;;;1.50;0.80;;;26.30;87.20;;;;;;6069472;23;20458;-75
2022/07/21 08:45:09;;;;;;;1.50;0.80;;;26.10;87.90;;;;;;6063140;23;20448;-74
2022/07/21 08:47:38;;;;;;;1.50;1.00;;;26.10;87.90;;;;;;6071828;23;20462;-77
2022/07/21 08:50:08;;;;;;;1.83;1.73;;;25.90;88.40;;;;;;6068294;23;20434;-75
2022/07/21 08:52:35;;;;;;;1.50;0.90;;;26.00;89.20;;;;;;6068317;23;20543;-74
2022/07/21 08:55:04;;;;;;;1.50;0.90;;;26.20;88.30;;;;;;6062848;23;20447;-75
2022/07/21 08:57:32;;;;;;;1.43;0.80;;;26.50;88.00;;;;;;6066698;23;20458;-74
2022/07/21 08:59:59;;;;;;;1.47;0.80;;;26.90;85.80;;;;;;6064874;23;20772;-75
2022/07/21 09:02:28;;;;;;;1.50;0.90;;;27.20;84.60;;;;;;6066052;23;20473;-76
2022/07/21 09:04:57;;;;;;;1.50;0.80;;;27.50;83.70;;;;;;6064199;23;20455;-76
2022/07/21 09:07:24;;;;;;;1.47;0.83;;;27.60;83.50;;;;;;6065018;23;20570;-75
2022/07/21 09:09:59;;;;;;;1.50;0.80;;;27.60;84.20;;;;;;6064071;23;20790;-75
2022/07/21 09:12:28;;;;;;;1.50;0.80;;;27.70;83.90;;;;;;6064705;23;20487;-75
2022/07/21 09:15:14;;;;;;;1.43;0.80;;;27.50;82.50;;;;;;6063342;23;20616;-75
2022/07/21 09:17:41;;;;;;;1.50;0.80;;;27.40;82.60;;;;;;6066284;23;20786;-74
2022/07/21 09:20:22;;;;;;;1.40;0.80;;;27.20;83.10;;;;;;6061794;23;20490;-75
2022/07/21 09:23:03;;;;;;;1.50;1.00;;;27.20;83.20;;;;;;6069099;23;20989;-75
2022/07/21 09:25:35;;;;;;;1.40;0.80;;;27.30;83.40;;;;;;6063221;23;20427;-75
2022/07/21 09:28:14;;;;;;;1.47;0.80;;;27.50;81.10;;;;;;6070058;23;20454;-75
2022/07/21 09:31:06;;;;;;;1.47;0.80;;;27.60;80.80;;;;;;6061817;23;20436;-75
2022/07/21 09:33:35;;;;;;;1.43;0.80;;;27.60;80.50;;;;;;6026897;23;20518;-75
2022/07/21 09:36:08;;;;;;;1.50;0.80;;;27.50;79.30;;;;;;6051755;23;20462;-77
2022/07/21 09:38:37;;;;;;;1.40;0.80;;;27.40;80.10;;;;;;6079702;23;20435;-75
2022/07/21 09:41:11;;;;;;;1.50;0.90;;;27.30;79.90;;;;;;6050191;23;20439;-74
2022/07/21 09:43:44;;;;;;;1.43;0.80;;;27.30;80.90;;;;;;6087549;23;20539;-77
2022/07/21 09:46:14;;;;;;;1.43;0.80;;;27.30;81.10;;;;;;6053011;23;20765;-75
2022/07/21 09:48:43;;;;;;;1.50;0.80;;;27.50;80.70;;;;;;6078133;23;20434;-75
2022/07/21 09:51:27;;;;;;;1.47;0.80;;;27.70;79.40;;;;;;6050689;23;20984;-76
2022/07/21 09:53:58;;;;;;;1.40;0.80;;;27.80;79.60;;;;;;6073821;23;20427;-79
2022/07/21 09:56:26;;;;;;;1.40;0.80;;;27.80;78.90;;;;;;6059433;23;20478;-77
2022/07/21 09:58:58;;;;;;;1.40;0.80;;;27.60;79.00;;;;;;6076254;23;20530;-77
2022/07/21 10:01:26;;;;;;;1.40;0.80;;;27.50;79.90;;;;;;6053046;23;20478;-75
2022/07/21 10:03:55;;;;;;;1.40;0.80;;;27.40;80.00;;;;;;6073456;23;20750;-76
2022/07/21 10:06:27;;;;;;;1.40;0.80;;;27.30;80.30;;;;;;6050301;23;20871;-77
2022/07/21 10:08:55;;;;;;;1.90;1.10;;;27.10;80.80;;;;;;6072505;23;20427;-77
2022/07/21 10:11:24;;;;;;;1.43;0.80;;;27.00;81.50;;;;;;6055148;23;20611;-77
2022/07/21 10:13:55;;;;;;;1.47;0.90;;;26.80;81.60;;;;;;6081002;23;20548;-77
2022/07/21 10:16:23;;;;;;;1.50;0.90;;;26.50;81.60;;;;;;6066721;23;20529;-75
2022/07/21 10:19:00;;;;;;;1.50;0.90;;;26.30;82.80;;;;;;6090456;23;20423;-75
2022/07/21 10:21:44;;;;;;;1.50;0.80;;;26.10;83.50;;;;;;6058069;23;20521;-75
2022/07/21 10:24:12;;;;;;;1.47;0.87;;;25.80;84.70;;;;;;6087998;23;20423;-76
2022/07/21 10:26:59;;;;;;;1.47;0.87;;;25.60;86.70;;;;;;6063560;23;20466;-76
2022/07/21 10:29:56;;;;;;;1.50;1.07;;;25.40;88.70;;;;;;6090249;23;20420;-75
2022/07/21 10:32:27;;;;;;;1.47;0.90;;;25.10;90.20;;;;;;6072900;23;20526;-77
2022/07/21 10:34:58;;;;;;;1.50;0.90;;;24.90;89.50;;;;;;6069831;23;20479;-76
2022/07/21 10:37:47;;;;;;;3.33;3.07;;;24.70;90.50;;;;;;6072064;23;20968;-77
2022/07/21 10:40:37;;;;;;;1.50;1.20;;;24.60;91.80;;;;;;6079300;23;20713;-77
2022/07/21 10:43:41;;;;;;;1.50;0.80;;;24.40;92.90;;;;;;6077055;23;20454;-76
2022/07/21 10:46:35;;;;;;;1.47;0.87;;;24.40;94.60;;;;;;6054398;23;20449;-76
2022/07/21 10:49:02;;;;;;;1.50;0.90;;;24.30;95.40;;;;;;6078125;23;20546;-75
2022/07/21 10:51:33;;;;;;;1.50;0.90;;;24.40;95.90;;;;;;6059592;23;20781;-79
2022/07/21 10:54:34;;;;;;;1.47;0.80;;;24.40;96.30;;;;;;6080350;23;20806;-77
2022/07/21 10:57:29;;;;;;;1.50;0.90;;;24.40;95.90;;;;;;6071913;23;20606;-77
2022/07/21 11:00:24;;;;;;;1.43;0.90;;;24.40;96.40;;;;;;6070441;23;20752;-78
2022/07/21 11:02:56;;;;;;;1.50;0.90;;;24.40;96.70;;;;;;6074788;23;20454;-76
2022/07/21 11:05:28;;;;;;;1.47;0.90;;;24.30;98.10;;;;;;6078288;23;20434;-77
2022/07/21 11:08:16;;;;;;;1.43;0.80;;;24.20;97.40;;;;;;6074489;23;20463;-77
2022/07/21 11:10:46;;;;;;;1.60;1.50;;;24.10;98.20;;;;;;6078756;23;20487;-76
2022/07/21 11:13:16;;;;;;;1.47;0.90;;;24.00;98.20;;;;;;6052967;23;20861;-78
2022/07/21 11:15:59;;;;;;;1.50;0.90;;;24.00;98.20;;;;;;6069588;23;20462;-76
2022/07/21 11:18:28;;;;;;;1.50;0.90;;;23.90;98.20;;;;;;6047491;23;20440;-76
2022/07/21 11:21:14;;;;;;;1.47;0.90;;;23.90;98.20;;;;;;6056422;23;20423;-75
2022/07/21 11:23:56;;;;;;;1.43;0.90;;;23.80;98.20;;;;;;6096746;23;20514;-77
2022/07/21 11:26:55;;;;;;;1.50;0.87;;;23.80;98.20;;;;;;6067919;23;20455;-77
2022/07/21 11:29:49;;;;;;;2.33;2.13;;;23.70;98.20;;;;;;6072585;23;20440;-76
2022/07/21 11:35:38;;;;;;;1.50;0.90;;;23.30;98.20;;;;;;6064201;23;20475;-76
2022/07/21 11:38:05;;;;;;;1.50;0.90;;;23.00;98.20;;;;;;6071978;23;20739;-75
2022/07/21 11:40:33;;;;;;;1.47;0.90;;;22.90;98.20;;;;;;6061415;23;20419;-76
2022/07/21 11:43:00;;;;;;;1.43;0.90;;;22.80;98.20;;;;;;6068421;23;20506;-75
2022/07/21 11:45:42;;;;;;;1.43;0.90;;;22.70;98.20;;;;;;6062664;23;20474;-75
2022/07/21 11:48:09;;;;;;;1.50;0.90;;;22.60;98.20;;;;;;6072930;23;20962;-77
2022/07/21 11:50:40;;;;;;;1.50;1.00;;;22.50;98.20;;;;;;6063687;23;20427;-75
2022/07/21 11:53:08;;;;;;;1.47;0.90;;;22.40;98.20;;;;;;6071859;23;20455;-75
2022/07/21 11:55:37;;;;;;;1.60;1.20;;;22.40;98.20;;;;;;6063461;23;20423;-75
2022/07/21 11:58:04;;;;;;;1.47;0.80;;;22.40;98.20;;;;;;6070094;23;20458;-75
2022/07/21 12:00:33;;;;;;;1.50;0.90;;;22.40;98.20;;;;;;6062915;23;20438;-76
2022/07/21 12:03:07;;;;;;;1.43;0.90;;;22.30;98.20;;;;;;6071491;23;20545;-76
2022/07/21 12:05:37;;;;;;;1.50;0.90;;;22.30;98.20;;;;;;6073567;23;20669;-76
2022/07/21 12:08:07;;;;;;;1.50;0.90;;;22.20;98.20;;;;;;6071442;23;20754;-75
2022/07/21 12:10:37;;;;;;;1.47;0.90;;;22.20;98.20;;;;;;6063274;23;20416;-76
2022/07/21 12:13:07;;;;;;;1.50;0.90;;;22.10;98.20;;;;;;6072041;23;20454;-75
2022/07/21 12:15:41;;;;;;;1.50;0.90;;;21.90;98.20;;;;;;6063655;23;20443;-76
2022/07/21 12:18:10;;;;;;;1.43;0.90;;;21.90;98.20;;;;;;6073075;23;20457;-75
2022/07/21 12:20:41;;;;;;;1.43;0.90;;;21.90;98.20;;;;;;6064147;23;20427;-76
2022/07/21 12:23:20;;;;;;;1.50;0.90;;;21.90;98.20;;;;;;6072794;23;20455;-76
2022/07/21 12:25:47;;;;;;;1.50;1.00;;;21.80;98.20;;;;;;6056681;23;20451;-75
2022/07/21 12:28:15;;;;;;;1.50;0.90;;;21.70;98.20;;;;;;6085167;23;20915;-75
2022/07/21 12:30:46;;;;;;;1.47;0.87;;;21.70;98.20;;;;;;6064441;23;20450;-76
2022/07/21 12:33:18;;;;;;;1.40;0.90;;;21.60;98.20;;;;;;6048426;23;21168;-74
2022/07/21 12:35:47;;;;;;;1.50;0.90;;;21.50;98.20;;;;;;6065506;23;20444;-76
2022/07/21 12:38:18;;;;;;;1.47;0.90;;;21.60;98.20;;;;;;6049880;23;20972;-74
2022/07/21 12:40:47;;;;;;;1.47;0.90;;;21.70;98.20;;;;;;6061081;23;20495;-74
2022/07/21 12:43:17;;;;;;;1.43;0.90;;;21.70;98.20;;;;;;6086174;23;20438;-74
2022/07/21 12:46:20;;;;;;;1.50;0.90;;;21.60;98.20;;;;;;6068183;23;20451;-74
2022/07/21 12:48:48;;;;;;;1.47;0.87;;;21.60;98.20;;;;;;6048338;23;20434;-76
2022/07/21 12:51:16;;;;;;;1.47;0.90;;;21.60;98.20;;;;;;6053816;23;20478;-76
2022/07/21 12:53:58;;;;;;;1.47;0.90;;;21.60;98.20;;;;;;6084886;23;20420;-77
2022/07/21 12:56:28;;;;;;;1.50;0.90;;;21.50;98.20;;;;;;6056764;23;20455;-78
2022/07/21 12:58:59;;;;;;;1.50;0.90;;;21.50;98.20;;;;;;6080977;23;20836;-76
2022/07/21 13:01:30;;;;;;;1.47;0.90;;;21.40;98.20;;;;;;6058088;23;20451;-74
2022/07/21 13:03:58;;;;;;;1.50;0.90;;;21.40;98.20;;;;;;6078475;23;21121;-76
2022/07/21 13:06:25;;;;;;;1.50;0.90;;;21.40;98.20;;;;;;6063696;23;20458;-74
2022/07/21 13:08:55;;;;;;;1.50;0.90;;;21.30;98.20;;;;;;6079795;23;20430;-74